sensor_id;sensor_type;location;lat;lon;timestamp;noise_LAeq;noise_LA_min;noise_LA_max;noise_LA01;noise_LA95
46749;Laerm;33775;47.992;11.864;2022-11-11T00:01:38;40.49;38.52;41.89;;
46749;Laerm;33775;47.992;11.864;2022-11-11T00:04:03;40.45;38.67;42.03;;
46749;Laerm;33775;47.992;11.864;2022-11-11T00:06:28;40.51;38.81;42.16;;
46749;Laerm;33775;47.992;11.864;2022-11-11T00:08:54;40.58;38.95;42.09;;
46749;Laerm;33775;47.992;11.864;2022-11-11T00:11:19;40.67;39.08;42.35;;
46749;Laerm;33775;47.992;11.864;2022-11-11T00:13:44;40.71;39.11;42.16;;
46749;Laerm;33775;47.992;11.864;2022-11-11T00:16:10;40.75;39.21;42.29;;
46749;Laerm;33775;47.992;11.864;2022-11-11T00:18:36;40.81;39.23;42.29;;
46749;Laerm;33775;47.992;11.864;2022-11-11T00:21:20;40.85;39.11;42.29;;
46749;Laerm;33775;47.992;11.864;2022-11-11T00:23:51;40.89;39.46;42.47;;
46749;Laerm;33775;47.992;11.864;2022-11-11T00:26:35;40.91;39.46;42.35;;
46749;Laerm;33775;47.992;11.864;2022-11-11T00:29:00;40.91;39.46;42.41;;
46749;Laerm;33775;47.992;11.864;2022-11-11T00:31:25;40.92;39.46;42.47;;
46749;Laerm;33775;47.992;11.864;2022-11-11T00:33:51;40.91;39.46;42.53;;
46749;Laerm;33775;47.992;11.864;2022-11-11T00:36:16;40.75;39.21;42.47;;
46749;Laerm;33775;47.992;11.864;2022-11-11T00:38:43;40.66;39.21;42.16;;
46749;Laerm;33775;47.992;11.864;2022-11-11T00:41:12;40.64;39.08;42.16;;
46749;Laerm;33775;47.992;11.864;2022-11-11T00:43:37;40.56;38.81;41.89;;
46749;Laerm;33775;47.992;11.864;2022-11-11T00:46:03;40.47;38.37;42.09;;
46749;Laerm;33775;47.992;11.864;2022-11-11T00:48:47;40.41;38.37;41.82;;
46749;Laerm;33775;47.992;11.864;2022-11-11T00:51:31;40.50;38.81;41.94;;
46749;Laerm;33775;47.992;11.864;2022-11-11T00:53:56;40.55;38.95;42.29;;
46749;Laerm;33775;47.992;11.864;2022-11-11T00:56:22;40.49;38.81;41.96;;
46749;Laerm;33775;47.992;11.864;2022-11-11T00:58:47;40.38;38.67;42.29;;
46749;Laerm;33775;47.992;11.864;2022-11-11T01:01:12;40.26;38.52;41.89;;
46749;Laerm;33775;47.992;11.864;2022-11-11T01:03:37;40.19;38.05;41.82;;
46749;Laerm;33775;47.992;11.864;2022-11-11T01:06:03;40.28;38.05;41.75;;
46749;Laerm;33775;47.992;11.864;2022-11-11T01:08:29;40.32;38.37;41.89;;
46749;Laerm;33775;47.992;11.864;2022-11-11T01:10:54;40.33;38.37;42.03;;
46749;Laerm;33775;47.992;11.864;2022-11-11T01:13:21;40.31;38.05;41.89;;
46749;Laerm;33775;47.992;11.864;2022-11-11T01:15:47;40.24;38.21;42.03;;
46749;Laerm;33775;47.992;11.864;2022-11-11T01:18:14;40.23;38.21;44.39;;
46749;Laerm;33775;47.992;11.864;2022-11-11T01:20:39;40.26;37.88;41.68;;
46749;Laerm;33775;47.992;11.864;2022-11-11T01:23:06;40.40;38.52;41.75;;
46749;Laerm;33775;47.992;11.864;2022-11-11T01:25:33;40.47;38.67;41.96;;
46749;Laerm;33775;47.992;11.864;2022-11-11T01:27:58;40.51;38.95;42.09;;
46749;Laerm;33775;47.992;11.864;2022-11-11T01:30:23;40.55;38.81;42.09;;
46749;Laerm;33775;47.992;11.864;2022-11-11T01:32:48;40.60;38.95;42.03;;
46749;Laerm;33775;47.992;11.864;2022-11-11T01:35:14;40.65;38.81;42.29;;
46749;Laerm;33775;47.992;11.864;2022-11-11T01:37:39;40.61;38.67;42.03;;
46749;Laerm;33775;47.992;11.864;2022-11-11T01:40:04;40.44;38.37;41.89;;
46749;Laerm;33775;47.992;11.864;2022-11-11T01:42:30;40.41;38.52;41.89;;
46749;Laerm;33775;47.992;11.864;2022-11-11T01:44:55;40.47;38.37;41.96;;
46749;Laerm;33775;47.992;11.864;2022-11-11T01:47:20;40.43;38.81;42.22;;
46749;Laerm;33775;47.992;11.864;2022-11-11T01:54:45;40.36;38.52;42.09;;
46749;Laerm;33775;47.992;11.864;2022-11-11T01:57:24;40.38;38.52;41.89;;
46749;Laerm;33775;47.992;11.864;2022-11-11T01:59:52;40.32;38.37;41.75;;
46749;Laerm;33775;47.992;11.864;2022-11-11T02:02:47;40.30;38.37;42.03;;
46749;Laerm;33775;47.992;11.864;2022-11-11T02:05:11;40.33;38.67;42.03;;
46749;Laerm;33775;47.992;11.864;2022-11-11T02:07:56;40.40;38.67;42.03;;
46749;Laerm;33775;47.992;11.864;2022-11-11T02:10:23;40.46;38.81;41.89;;
46749;Laerm;33775;47.992;11.864;2022-11-11T02:12:49;40.46;38.67;42.09;;
46749;Laerm;33775;47.992;11.864;2022-11-11T02:15:33;40.39;38.05;41.89;;
46749;Laerm;33775;47.992;11.864;2022-11-11T02:17:59;40.30;38.21;41.96;;
46749;Laerm;33775;47.992;11.864;2022-11-11T02:20:25;40.17;38.05;41.68;;
46749;Laerm;33775;47.992;11.864;2022-11-11T02:22:59;40.09;38.05;41.68;;
46749;Laerm;33775;47.992;11.864;2022-11-11T02:25:26;40.16;38.21;41.96;;
46749;Laerm;33775;47.992;11.864;2022-11-11T02:27:53;40.37;38.21;42.29;;
46749;Laerm;33775;47.992;11.864;2022-11-11T02:30:22;40.41;38.67;41.89;;
46749;Laerm;33775;47.992;11.864;2022-11-11T02:32:48;40.46;38.81;41.89;;
46749;Laerm;33775;47.992;11.864;2022-11-11T02:35:20;40.48;38.67;42.09;;
46749;Laerm;33775;47.992;11.864;2022-11-11T02:37:47;40.48;38.67;42.09;;
46749;Laerm;33775;47.992;11.864;2022-11-11T02:40:15;40.50;38.52;42.16;;
46749;Laerm;33775;47.992;11.864;2022-11-11T02:42:42;40.54;38.87;42.35;;
46749;Laerm;33775;47.992;11.864;2022-11-11T02:45:07;40.57;38.47;42.22;;
46749;Laerm;33775;47.992;11.864;2022-11-11T02:47:32;40.58;38.81;42.09;;
46749;Laerm;33775;47.992;11.864;2022-11-11T02:49:57;40.58;38.95;42.09;;
46749;Laerm;33775;47.992;11.864;2022-11-11T02:52:23;40.65;38.99;42.16;;
46749;Laerm;33775;47.992;11.864;2022-11-11T02:54:48;40.72;39.34;42.22;;
46749;Laerm;33775;47.992;11.864;2022-11-11T02:57:13;40.77;39.21;42.22;;
46749;Laerm;33775;47.992;11.864;2022-11-11T02:59:39;40.78;39.08;42.29;;
46749;Laerm;33775;47.992;11.864;2022-11-11T03:02:04;40.77;39.46;42.41;;
46749;Laerm;33775;47.992;11.864;2022-11-11T03:04:30;40.75;39.21;42.29;;
46749;Laerm;33775;47.992;11.864;2022-11-11T03:06:55;40.73;39.21;42.35;;
46749;Laerm;33775;47.992;11.864;2022-11-11T03:09:21;40.65;39.08;42.41;;
46749;Laerm;33775;47.992;11.864;2022-11-11T03:11:46;40.57;38.95;42.03;;
46749;Laerm;33775;47.992;11.864;2022-11-11T03:14:11;40.52;38.81;41.89;;
46749;Laerm;33775;47.992;11.864;2022-11-11T03:16:36;40.49;38.67;42.09;;
46749;Laerm;33775;47.992;11.864;2022-11-11T03:19:20;40.43;38.52;41.82;;
46749;Laerm;33775;47.992;11.864;2022-11-11T03:21:45;40.39;38.52;41.89;;
46749;Laerm;33775;47.992;11.864;2022-11-11T03:24:10;40.37;38.37;41.82;;
46749;Laerm;33775;47.992;11.864;2022-11-11T03:26:36;40.48;38.81;41.82;;
46749;Laerm;33775;47.992;11.864;2022-11-11T03:29:01;40.52;38.52;42.29;;
46749;Laerm;33775;47.992;11.864;2022-11-11T03:31:26;40.53;38.67;42.03;;
46749;Laerm;33775;47.992;11.864;2022-11-11T03:33:51;40.47;38.37;41.89;;
46749;Laerm;33775;47.992;11.864;2022-11-11T03:36:17;40.39;38.05;41.96;;
46749;Laerm;33775;47.992;11.864;2022-11-11T03:38:42;40.34;38.52;41.82;;
46749;Laerm;33775;47.992;11.864;2022-11-11T03:41:07;40.49;38.52;42.03;;
46749;Laerm;33775;47.992;11.864;2022-11-11T03:43:33;40.54;38.95;42.03;;
46749;Laerm;33775;47.992;11.864;2022-11-11T03:46:00;40.59;38.95;42.16;;
46749;Laerm;33775;47.992;11.864;2022-11-11T03:48:26;40.58;38.95;42.03;;
46749;Laerm;33775;47.992;11.864;2022-11-11T03:50:51;40.58;38.87;42.09;;
46749;Laerm;33775;47.992;11.864;2022-11-11T03:53:17;40.51;38.81;41.89;;
46749;Laerm;33775;47.992;11.864;2022-11-11T03:55:44;40.40;38.67;41.89;;
46749;Laerm;33775;47.992;11.864;2022-11-11T03:58:09;40.42;38.52;41.89;;
46749;Laerm;33775;47.992;11.864;2022-11-11T04:00:34;40.47;38.52;41.96;;
46749;Laerm;33775;47.992;11.864;2022-11-11T04:03:08;40.48;38.67;42.03;;
46749;Laerm;33775;47.992;11.864;2022-11-11T04:05:52;40.49;38.81;42.03;;
46749;Laerm;33775;47.992;11.864;2022-11-11T04:08:36;40.44;38.37;41.96;;
46749;Laerm;33775;47.992;11.864;2022-11-11T04:11:23;40.40;38.05;41.89;;
46749;Laerm;33775;47.992;11.864;2022-11-11T04:13:48;40.40;38.52;41.75;;
46749;Laerm;33775;47.992;11.864;2022-11-11T04:16:32;40.38;38.52;42.09;;
46749;Laerm;33775;47.992;11.864;2022-11-11T04:18:58;40.37;38.37;42.03;;
46749;Laerm;33775;47.992;11.864;2022-11-11T04:21:41;40.34;37.88;41.75;;
46749;Laerm;33775;47.992;11.864;2022-11-11T04:24:16;40.38;38.52;42.29;;
46749;Laerm;33775;47.992;11.864;2022-11-11T04:27:02;40.37;38.37;41.68;;
46749;Laerm;33775;47.992;11.864;2022-11-11T04:29:27;40.31;38.21;41.68;;
46749;Laerm;33775;47.992;11.864;2022-11-11T04:31:54;40.20;38.21;41.68;;
46749;Laerm;33775;47.992;11.864;2022-11-11T04:34:38;40.11;37.12;41.53;;
46749;Laerm;33775;47.992;11.864;2022-11-11T04:37:04;40.08;38.21;41.53;;
46749;Laerm;33775;47.992;11.864;2022-11-11T04:39:29;40.01;37.88;41.61;;
46749;Laerm;33775;47.992;11.864;2022-11-11T04:42:12;39.96;37.52;41.46;;
46749;Laerm;33775;47.992;11.864;2022-11-11T04:44:38;39.99;37.88;41.38;;
46749;Laerm;33775;47.992;11.864;2022-11-11T04:47:22;39.95;37.52;41.46;;
46749;Laerm;33775;47.992;11.864;2022-11-11T04:49:47;39.93;36.91;41.53;;
46749;Laerm;33775;47.992;11.864;2022-11-11T04:52:12;39.96;37.52;41.75;;
46749;Laerm;33775;47.992;11.864;2022-11-11T04:54:56;39.89;37.70;41.30;;
46749;Laerm;33775;47.992;11.864;2022-11-11T05:00:06;39.72;37.52;41.38;;
46749;Laerm;33775;47.992;11.864;2022-11-11T05:02:32;39.64;37.12;41.14;;
46749;Laerm;33775;47.992;11.864;2022-11-11T05:05:15;39.63;36.91;41.06;;
46749;Laerm;33775;47.992;11.864;2022-11-11T05:07:41;39.63;37.12;41.38;;
46749;Laerm;33775;47.992;11.864;2022-11-11T05:10:24;39.69;36.56;41.30;;
46749;Laerm;33775;47.992;11.864;2022-11-11T05:12:49;39.74;37.12;41.22;;
46749;Laerm;33775;47.992;11.864;2022-11-11T05:15:15;39.74;36.69;41.38;;
46749;Laerm;33775;47.992;11.864;2022-11-11T05:17:58;39.77;37.12;41.30;;
46749;Laerm;33775;47.992;11.864;2022-11-11T05:20:46;39.75;37.32;41.38;;
46749;Laerm;33775;47.992;11.864;2022-11-11T05:23:30;39.75;37.12;41.30;;
46749;Laerm;33775;47.992;11.864;2022-11-11T05:26:14;39.69;35.94;41.30;;
46749;Laerm;33775;47.992;11.864;2022-11-11T05:28:39;39.64;36.91;47.67;;
46749;Laerm;33775;47.992;11.864;2022-11-11T05:31:04;39.58;36.91;41.46;;
46749;Laerm;33775;47.992;11.864;2022-11-11T05:33:30;39.56;35.94;41.14;;
46749;Laerm;33775;47.992;11.864;2022-11-11T05:35:55;39.57;36.69;41.38;;
46749;Laerm;33775;47.992;11.864;2022-11-11T05:38:20;39.68;35.94;41.22;;
46749;Laerm;33775;47.992;11.864;2022-11-11T05:40:45;39.79;37.70;41.38;;
46749;Laerm;33775;47.992;11.864;2022-11-11T05:43:10;39.82;37.87;41.22;;
46749;Laerm;33775;47.992;11.864;2022-11-11T05:45:36;39.90;37.52;41.46;;
46749;Laerm;33775;47.992;11.864;2022-11-11T05:48:01;39.95;37.70;41.53;;
46749;Laerm;33775;47.992;11.864;2022-11-11T05:50:27;40.04;37.87;41.46;;
46749;Laerm;33775;47.992;11.864;2022-11-11T05:52:52;40.07;38.21;41.89;;
46749;Laerm;33775;47.992;11.864;2022-11-11T05:55:17;40.08;38.21;41.68;;
46749;Laerm;33775;47.992;11.864;2022-11-11T05:57:43;40.08;37.88;41.75;;
46749;Laerm;33775;47.992;11.864;2022-11-11T06:00:09;40.12;38.05;41.46;;
46749;Laerm;33775;47.992;11.864;2022-11-11T06:02:34;40.07;37.88;41.46;;
46749;Laerm;33775;47.992;11.864;2022-11-11T06:04:59;40.03;37.70;41.53;;
46749;Laerm;33775;47.992;11.864;2022-11-11T06:07:25;39.98;37.70;41.61;;
46749;Laerm;33775;47.992;11.864;2022-11-11T06:09:50;39.96;37.12;41.53;;
46749;Laerm;33775;47.992;11.864;2022-11-11T06:12:15;40.03;37.52;41.46;;
46749;Laerm;33775;47.992;11.864;2022-11-11T06:14:40;40.05;37.70;41.61;;
46749;Laerm;33775;47.992;11.864;2022-11-11T06:17:05;40.00;37.88;41.68;;
46749;Laerm;33775;47.992;11.864;2022-11-11T06:19:31;39.96;38.05;41.53;;
46749;Laerm;33775;47.992;11.864;2022-11-11T06:21:56;39.99;37.88;41.38;;
46749;Laerm;33775;47.992;11.864;2022-11-11T06:24:21;40.02;38.05;41.82;;
46749;Laerm;33775;47.992;11.864;2022-11-11T06:26:46;40.04;38.05;41.38;;
46749;Laerm;33775;47.992;11.864;2022-11-11T06:29:12;40.06;38.21;41.82;;
46749;Laerm;33775;47.992;11.864;2022-11-11T06:31:37;40.07;37.88;41.53;;
46749;Laerm;33775;47.992;11.864;2022-11-11T06:34:02;40.09;38.05;41.75;;
46749;Laerm;33775;47.992;11.864;2022-11-11T06:36:27;40.15;38.21;41.96;;
46749;Laerm;33775;47.992;11.864;2022-11-11T06:38:52;40.22;38.21;41.82;;
46749;Laerm;33775;47.992;11.864;2022-11-11T06:41:17;40.33;38.37;41.82;;
46749;Laerm;33775;47.992;11.864;2022-11-11T06:43:44;40.38;38.67;41.82;;
46749;Laerm;33775;47.992;11.864;2022-11-11T06:46:17;40.42;38.52;42.03;;
46749;Laerm;33775;47.992;11.864;2022-11-11T06:48:44;40.47;38.81;42.03;;
46749;Laerm;33775;47.992;11.864;2022-11-11T06:51:10;40.54;39.08;41.96;;
46749;Laerm;33775;47.992;11.864;2022-11-11T06:53:35;40.58;38.95;42.09;;
46749;Laerm;33775;47.992;11.864;2022-11-11T06:56:01;40.61;38.67;42.09;;
46749;Laerm;33775;47.992;11.864;2022-11-11T06:58:26;40.64;38.81;42.16;;
46749;Laerm;33775;47.992;11.864;2022-11-11T07:00:51;40.67;38.95;42.03;;
46749;Laerm;33775;47.992;11.864;2022-11-11T07:03:17;40.75;39.34;42.47;;
46749;Laerm;33775;47.992;11.864;2022-11-11T07:05:43;40.85;39.11;42.22;;
46749;Laerm;33775;47.992;11.864;2022-11-11T07:08:09;40.96;39.58;42.59;;
46749;Laerm;33775;47.992;11.864;2022-11-11T07:10:36;41.05;39.70;42.65;;
46749;Laerm;33775;47.992;11.864;2022-11-11T07:17:55;41.15;39.99;42.22;;
46749;Laerm;33775;47.992;11.864;2022-11-11T07:20:20;41.21;39.99;42.16;;
46749;Laerm;33775;47.992;11.864;2022-11-11T07:22:45;41.22;39.99;42.09;;
46749;Laerm;33775;47.992;11.864;2022-11-11T07:25:11;41.18;39.99;42.09;;
46749;Laerm;33775;47.992;11.864;2022-11-11T07:27:36;41.13;39.89;42.09;;
46749;Laerm;33775;47.992;11.864;2022-11-11T07:30:02;41.15;40.03;42.09;;
46749;Laerm;33775;47.992;11.864;2022-11-11T07:32:28;41.14;39.99;42.09;;
46749;Laerm;33775;47.992;11.864;2022-11-11T07:34:53;40.98;39.68;42.03;;
46749;Laerm;33775;47.992;11.864;2022-11-11T07:37:18;40.79;39.46;41.75;;
46749;Laerm;33775;47.992;11.864;2022-11-11T07:39:43;40.71;39.46;41.82;;
46749;Laerm;33775;47.992;11.864;2022-11-11T07:42:09;40.06;38.21;41.53;;
46749;Laerm;33775;47.992;11.864;2022-11-11T07:44:34;39.55;38.02;40.80;;
46749;Laerm;33775;47.992;11.864;2022-11-11T07:46:59;39.47;37.88;40.80;;
46749;Laerm;33775;47.992;11.864;2022-11-11T07:49:24;39.43;37.88;40.89;;
46749;Laerm;33775;47.992;11.864;2022-11-11T07:51:49;39.14;37.32;40.43;;
46749;Laerm;33775;47.992;11.864;2022-11-11T07:54:15;38.98;37.12;40.53;;
46749;Laerm;33775;47.992;11.864;2022-11-11T07:56:40;38.93;37.32;40.33;;
46749;Laerm;33775;47.992;11.864;2022-11-11T07:59:05;38.92;37.12;40.23;;
46749;Laerm;33775;47.992;11.864;2022-11-11T08:01:30;38.89;36.91;40.33;;
46749;Laerm;33775;47.992;11.864;2022-11-11T08:03:56;38.90;36.91;40.43;;
46749;Laerm;33775;47.992;11.864;2022-11-11T08:06:21;38.91;37.32;40.33;;
46749;Laerm;33775;47.992;11.864;2022-11-11T08:08:47;38.94;36.91;40.33;;
46749;Laerm;33775;47.992;11.864;2022-11-11T08:11:12;38.98;37.35;40.33;;
46749;Laerm;33775;47.992;11.864;2022-11-11T08:13:37;38.93;36.91;40.33;;
46749;Laerm;33775;47.992;11.864;2022-11-11T08:16:09;38.85;36.91;40.43;;
46749;Laerm;33775;47.992;11.864;2022-11-11T08:18:34;38.82;36.69;40.23;;
46749;Laerm;33775;47.992;11.864;2022-11-11T08:21:00;38.85;36.91;40.33;;
46749;Laerm;33775;47.992;11.864;2022-11-11T08:23:26;38.83;36.91;40.33;;
46749;Laerm;33775;47.992;11.864;2022-11-11T08:26:00;38.88;36.91;40.33;;
46749;Laerm;33775;47.992;11.864;2022-11-11T08:28:27;38.85;36.91;40.23;;
46749;Laerm;33775;47.992;11.864;2022-11-11T08:30:52;38.72;36.69;40.23;;
46749;Laerm;33775;47.992;11.864;2022-11-11T08:33:17;38.67;36.45;40.13;;
46749;Laerm;33775;47.992;11.864;2022-11-11T08:35:43;38.64;36.45;40.13;;
46749;Laerm;33775;47.992;11.864;2022-11-11T08:38:08;38.61;36.34;40.43;;
46749;Laerm;33775;47.992;11.864;2022-11-11T08:40:33;38.49;36.45;40.03;;
46749;Laerm;33775;47.992;11.864;2022-11-11T08:42:58;38.28;34.31;39.92;;
46749;Laerm;33775;47.992;11.864;2022-11-11T08:45:24;38.05;33.90;39.92;;
46749;Laerm;33775;47.992;11.864;2022-11-11T08:47:49;38.13;34.31;39.81;;
46749;Laerm;33775;47.992;11.864;2022-11-11T08:50:15;38.08;32.93;39.70;;
46749;Laerm;33775;47.992;11.864;2022-11-11T08:52:46;37.93;34.31;39.92;;
46749;Laerm;33775;47.992;11.864;2022-11-11T08:55:12;37.97;33.90;39.81;;
46749;Laerm;33775;47.992;11.864;2022-11-11T08:57:37;37.68;31.68;39.46;;
46749;Laerm;33775;47.992;11.864;2022-11-11T09:00:03;37.41;32.35;39.34;;
46749;Laerm;33775;47.992;11.864;2022-11-11T09:02:28;37.24;28.67;39.58;;
46749;Laerm;33775;47.992;11.864;2022-11-11T09:04:53;37.18;29.92;39.58;;
46749;Laerm;33775;47.992;11.864;2022-11-11T09:07:19;37.02;28.67;39.92;;
46749;Laerm;33775;47.992;11.864;2022-11-11T09:09:44;36.72;30.89;39.46;;
46749;Laerm;33775;47.992;11.864;2022-11-11T09:12:09;36.71;30.89;39.34;;
46749;Laerm;33775;47.992;11.864;2022-11-11T09:14:34;36.79;30.89;39.21;;
46749;Laerm;33775;47.992;11.864;2022-11-11T09:16:59;36.66;30.89;39.70;;
46749;Laerm;33775;47.992;11.864;2022-11-11T09:19:25;36.62;30.89;39.34;;
46749;Laerm;33775;47.992;11.864;2022-11-11T09:21:50;36.60;31.68;39.70;;
46749;Laerm;33775;47.992;11.864;2022-11-11T09:24:16;36.58;30.89;39.23;;
46749;Laerm;33775;47.992;11.864;2022-11-11T09:26:42;36.63;30.89;39.70;;
46749;Laerm;33775;47.992;11.864;2022-11-11T09:29:07;36.61;31.68;39.58;;
46749;Laerm;33775;47.992;11.864;2022-11-11T09:31:32;36.65;29.92;39.92;;
46749;Laerm;33775;47.992;11.864;2022-11-11T09:33:57;36.71;30.89;39.70;;
46749;Laerm;33775;47.992;11.864;2022-11-11T09:36:22;36.68;31.33;39.81;;
46749;Laerm;33775;47.992;11.864;2022-11-11T09:38:48;36.71;30.89;39.92;;
46749;Laerm;33775;47.992;11.864;2022-11-11T09:43:44;36.74;30.89;39.70;;
46749;Laerm;33775;47.992;11.864;2022-11-11T09:46:29;36.79;31.68;39.70;;
46749;Laerm;33775;47.992;11.864;2022-11-11T09:51:42;36.81;26.91;39.70;;
46749;Laerm;33775;47.992;11.864;2022-11-11T09:54:13;36.82;30.89;39.92;;
46749;Laerm;33775;47.992;11.864;2022-11-11T09:56:40;36.87;29.92;39.58;;
46749;Laerm;33775;47.992;11.864;2022-11-11T09:59:07;36.88;29.92;39.92;;
46749;Laerm;33775;47.992;11.864;2022-11-11T10:01:40;36.92;31.68;40.33;;
46749;Laerm;33775;47.992;11.864;2022-11-11T10:04:11;36.84;30.89;39.70;;
46749;Laerm;33775;47.992;11.864;2022-11-11T10:06:37;36.84;29.92;40.33;;
46749;Laerm;33775;47.992;11.864;2022-11-11T10:09:07;36.79;30.89;39.92;;
46749;Laerm;33775;47.992;11.864;2022-11-11T10:14:03;36.74;29.92;40.53;;
46749;Laerm;33775;47.992;11.864;2022-11-11T10:16:35;36.77;30.89;39.92;;
46749;Laerm;33775;47.992;11.864;2022-11-11T10:21:50;36.75;30.89;39.70;;
46749;Laerm;33775;47.992;11.864;2022-11-11T10:24:16;36.78;30.89;40.43;;
46749;Laerm;33775;47.992;11.864;2022-11-11T10:26:44;36.75;29.92;39.99;;
46749;Laerm;33775;47.992;11.864;2022-11-11T10:29:20;36.74;31.68;39.92;;
46749;Laerm;33775;47.992;11.864;2022-11-11T10:31:50;36.76;30.89;39.92;;
46749;Laerm;33775;47.992;11.864;2022-11-11T10:34:19;36.72;30.89;39.70;;
46749;Laerm;33775;47.992;11.864;2022-11-11T10:36:46;36.76;28.67;39.70;;
46749;Laerm;33775;47.992;11.864;2022-11-11T10:39:15;36.77;30.89;39.81;;
46749;Laerm;33775;47.992;11.864;2022-11-11T10:41:42;36.82;31.68;39.70;;
46749;Laerm;33775;47.992;11.864;2022-11-11T10:47:09;36.94;31.68;39.81;;
46749;Laerm;33775;47.992;11.864;2022-11-11T10:49:42;36.92;30.89;39.81;;
46749;Laerm;33775;47.992;11.864;2022-11-11T10:52:18;36.97;30.89;40.03;;
46749;Laerm;33775;47.992;11.864;2022-11-11T10:54:59;37.08;31.68;40.13;;
46749;Laerm;33775;47.992;11.864;2022-11-11T10:57:30;37.16;31.68;40.03;;
46749;Laerm;33775;47.992;11.864;2022-11-11T11:00:02;37.25;32.93;40.03;;
46749;Laerm;33775;47.992;11.864;2022-11-11T11:02:39;37.30;32.93;40.18;;
46749;Laerm;33775;47.992;11.864;2022-11-11T11:05:10;37.34;32.35;40.23;;
46749;Laerm;33775;47.992;11.864;2022-11-11T11:07:41;37.38;32.93;40.23;;
46749;Laerm;33775;47.992;11.864;2022-11-11T11:10:11;37.40;32.93;39.92;;
46749;Laerm;33775;47.992;11.864;2022-11-11T11:12:40;37.39;32.93;39.81;;
46749;Laerm;33775;47.992;11.864;2022-11-11T11:15:17;37.43;33.44;39.92;;
46749;Laerm;33775;47.992;11.864;2022-11-11T11:20:15;37.49;33.44;40.23;;
46749;Laerm;33775;47.992;11.864;2022-11-11T11:25:14;37.48;33.44;40.33;;
46749;Laerm;33775;47.992;11.864;2022-11-11T11:27:39;37.52;33.90;40.53;;
46749;Laerm;33775;47.992;11.864;2022-11-11T11:30:38;37.51;32.93;40.23;;
46749;Laerm;33775;47.992;11.864;2022-11-11T11:33:00;37.53;30.89;40.13;;
46749;Laerm;33775;47.992;11.864;2022-11-11T11:37:57;37.53;33.44;40.13;;
46749;Laerm;33775;47.992;11.864;2022-11-11T11:40:22;37.56;33.44;40.43;;
46749;Laerm;33775;47.992;11.864;2022-11-11T11:42:48;37.56;32.35;40.03;;
46749;Laerm;33775;47.992;11.864;2022-11-11T11:45:19;37.55;32.93;40.43;;
46749;Laerm;33775;47.992;11.864;2022-11-11T11:53:07;37.53;33.90;40.13;;
46749;Laerm;33775;47.992;11.864;2022-11-11T11:55:39;37.54;32.93;40.71;;
46749;Laerm;33775;47.992;11.864;2022-11-11T12:00:37;37.48;33.44;40.13;;
46749;Laerm;33775;47.992;11.864;2022-11-11T12:05:50;37.41;32.93;40.45;;
46749;Laerm;33775;47.992;11.864;2022-11-11T12:08:31;37.37;33.44;40.23;;
46749;Laerm;33775;47.992;11.864;2022-11-11T12:13:33;37.36;32.35;40.13;;
46749;Laerm;33775;47.992;11.864;2022-11-11T12:16:10;37.35;32.93;39.92;;
46749;Laerm;33775;47.992;11.864;2022-11-11T12:34:21;37.20;33.44;40.03;;
46749;Laerm;33775;47.992;11.864;2022-11-11T12:39:37;37.20;32.35;40.33;;
46749;Laerm;33775;47.992;11.864;2022-11-11T12:47:22;37.26;32.93;40.13;;
46749;Laerm;33775;47.992;11.864;2022-11-11T12:49:56;37.25;32.35;40.36;;
46749;Laerm;33775;47.992;11.864;2022-11-11T12:52:30;37.23;33.44;39.92;;
46749;Laerm;33775;47.992;11.864;2022-11-11T13:00:17;37.26;33.44;39.92;;
46749;Laerm;33775;47.992;11.864;2022-11-11T13:05:30;37.24;32.93;39.81;;
46749;Laerm;33775;47.992;11.864;2022-11-11T13:16:09;37.24;32.93;39.92;;
46749;Laerm;33775;47.992;11.864;2022-11-11T13:18:48;37.25;32.93;44.07;;
46749;Laerm;33775;47.992;11.864;2022-11-11T13:21:17;37.25;32.93;40.03;;
46749;Laerm;33775;47.992;11.864;2022-11-11T13:23:44;37.22;30.89;40.03;;
46749;Laerm;33775;47.992;11.864;2022-11-11T13:29:17;37.21;32.93;40.13;;
46749;Laerm;33775;47.992;11.864;2022-11-11T13:31:49;37.24;32.35;40.53;;
46749;Laerm;33775;47.992;11.864;2022-11-11T13:34:16;37.24;32.35;39.81;;
46749;Laerm;33775;47.992;11.864;2022-11-11T13:36:45;37.22;31.68;40.03;;
46749;Laerm;33775;47.992;11.864;2022-11-11T13:39:54;37.23;32.35;39.70;;
46749;Laerm;33775;47.992;11.864;2022-11-11T13:42:00;37.20;31.68;39.92;;
46749;Laerm;33775;47.992;11.864;2022-11-11T13:44:30;37.25;32.93;40.03;;
46749;Laerm;33775;47.992;11.864;2022-11-11T13:46:59;37.23;31.68;39.92;;
46749;Laerm;33775;47.992;11.864;2022-11-11T13:49:33;37.20;33.90;40.23;;
46749;Laerm;33775;47.992;11.864;2022-11-11T13:52:03;37.23;32.58;39.92;;
46749;Laerm;33775;47.992;11.864;2022-11-11T13:59:39;37.21;32.35;40.03;;
46749;Laerm;33775;47.992;11.864;2022-11-11T14:02:12;37.21;32.35;39.70;;
46749;Laerm;33775;47.992;11.864;2022-11-11T14:17:55;37.27;33.44;40.23;;
46749;Laerm;33775;47.992;11.864;2022-11-11T14:20:34;37.24;32.93;39.70;;
46749;Laerm;33775;47.992;11.864;2022-11-11T14:23:14;37.26;32.93;40.03;;
46749;Laerm;33775;47.992;11.864;2022-11-11T14:25:39;37.27;32.93;40.03;;
46749;Laerm;33775;47.992;11.864;2022-11-11T14:28:18;37.34;32.93;40.13;;
46749;Laerm;33775;47.992;11.864;2022-11-11T14:30:43;37.32;32.35;40.23;;
46749;Laerm;33775;47.992;11.864;2022-11-11T14:33:17;37.35;31.68;40.03;;
46749;Laerm;33775;47.992;11.864;2022-11-11T14:40:39;37.39;33.44;40.43;;
46749;Laerm;33775;47.992;11.864;2022-11-11T14:50:57;37.44;33.44;40.23;;
46749;Laerm;33775;47.992;11.864;2022-11-11T14:53:29;37.42;32.93;40.23;;
46749;Laerm;33775;47.992;11.864;2022-11-11T14:55:57;37.38;32.35;40.23;;
46749;Laerm;33775;47.992;11.864;2022-11-11T14:58:24;37.35;32.35;40.03;;
46749;Laerm;33775;47.992;11.864;2022-11-11T15:00:57;37.32;32.35;40.03;;
46749;Laerm;33775;47.992;11.864;2022-11-11T15:03:25;37.30;32.93;40.33;;
46749;Laerm;33775;47.992;11.864;2022-11-11T15:08:45;37.28;33.44;40.43;;
46749;Laerm;33775;47.992;11.864;2022-11-11T15:11:29;37.25;32.93;39.92;;
46749;Laerm;33775;47.992;11.864;2022-11-11T15:21:24;37.20;32.35;40.13;;
46749;Laerm;33775;47.992;11.864;2022-11-11T15:24:06;37.19;32.93;39.89;;
46749;Laerm;33775;47.992;11.864;2022-11-11T15:29:45;37.16;32.93;39.92;;
46749;Laerm;33775;47.992;11.864;2022-11-11T15:35:07;37.03;31.68;39.92;;
46749;Laerm;33775;47.992;11.864;2022-11-11T15:37:20;37.03;31.68;40.33;;
46749;Laerm;33775;47.992;11.864;2022-11-11T15:39:53;37.01;28.67;39.89;;
46749;Laerm;33775;47.992;11.864;2022-11-11T15:42:36;36.99;31.68;39.92;;
46749;Laerm;33775;47.992;11.864;2022-11-11T15:45:06;36.96;31.68;40.33;;
46749;Laerm;33775;47.992;11.864;2022-11-11T15:47:39;36.91;31.68;39.81;;
46749;Laerm;33775;47.992;11.864;2022-11-11T15:50:14;36.94;30.89;39.99;;
46749;Laerm;33775;47.992;11.864;2022-11-11T15:52:40;36.90;31.68;39.70;;
46749;Laerm;33775;47.992;11.864;2022-11-11T15:55:16;36.86;30.89;39.81;;
46749;Laerm;33775;47.992;11.864;2022-11-11T15:57:43;36.79;31.68;39.58;;